createdAt,value
2023-01-29T00:02:01.769Z,99404.34
2023-01-29T00:04:29.130Z,99397.75
2023-01-29T00:06:56.844Z,99393.91
2023-01-29T00:09:24.373Z,99395.13
2023-01-29T00:11:51.899Z,99402.09
2023-01-29T00:14:20.223Z,99396.91
2023-01-29T00:16:47.783Z,99402.09
2023-01-29T00:19:14.962Z,99398.81
2023-01-29T00:21:43.040Z,99396.91
2023-01-29T00:24:10.959Z,99403.09
2023-01-29T00:26:39.539Z,99408.31
2023-01-29T00:29:08.219Z,99408.16
2023-01-29T00:31:35.741Z,99412.00
2023-01-29T00:34:03.050Z,99406.00
2023-01-29T00:36:30.455Z,99406.00
2023-01-29T00:39:02.823Z,99409.53
2023-01-29T00:41:48.207Z,99418.31
2023-01-29T00:44:31.365Z,99405.13
2023-01-29T00:47:00.444Z,99406.00
2023-01-29T00:49:28.088Z,99405.00
2023-01-29T00:52:10.861Z,99409.25
2023-01-29T00:54:38.707Z,99415.31
2023-01-29T00:57:09.593Z,99406.38
2023-01-29T00:59:37.040Z,99404.91
2023-01-29T01:02:19.644Z,99391.97
2023-01-29T01:04:46.854Z,99394.84
2023-01-29T01:07:14.516Z,99394.03
2023-01-29T01:09:57.649Z,99398.56
2023-01-29T01:12:25.454Z,99402.25
2023-01-29T01:14:53.432Z,99399.91
2023-01-29T01:17:21.268Z,99399.63
2023-01-29T01:19:48.564Z,99410.91
2023-01-29T01:22:15.645Z,99408.97
2023-01-29T01:24:42.736Z,99405.41
2023-01-29T01:27:10.452Z,99402.09
2023-01-29T01:29:38.436Z,99405.00
2023-01-29T01:32:06.425Z,99407.72
2023-01-29T01:34:34.617Z,99398.81
2023-01-29T01:37:02.395Z,99399.47
2023-01-29T01:39:30.524Z,99396.88
2023-01-29T01:41:57.837Z,99397.69
2023-01-29T01:44:55.883Z,99403.75
2023-01-29T01:47:30.174Z,99394.13
2023-01-29T01:50:08.720Z,99394.41
2023-01-29T01:52:42.246Z,99393.56
2023-01-29T01:55:13.553Z,99392.75
2023-01-29T01:57:44.132Z,99380.81
2023-01-29T02:00:17.175Z,99383.94
2023-01-29T02:03:02.295Z,99382.31
2023-01-29T02:05:48.350Z,99381.75
2023-01-29T02:08:37.132Z,99388.19
2023-01-29T02:11:06.791Z,99394.19
2023-01-29T02:13:34.828Z,99396.13
2023-01-29T02:16:02.499Z,99397.44
2023-01-29T02:18:29.932Z,99404.63
2023-01-29T02:21:08.129Z,99408.31
2023-01-29T02:24:05.660Z,99412.56
2023-01-29T02:26:49.189Z,99417.66
2023-01-29T02:29:29.289Z,99417.66
2023-01-29T02:32:17.548Z,99421.91
2023-01-29T02:35:11.868Z,99421.78
2023-01-29T02:37:50.055Z,99426.84
2023-01-29T02:40:37.390Z,99424.09
2023-01-29T02:43:13.841Z,99418.78
2023-01-29T02:45:53.785Z,99424.94
2023-01-29T02:48:24.308Z,99420.69
2023-01-29T02:51:04.335Z,99425.09
2023-01-29T02:53:41.936Z,99432.63
2023-01-29T02:56:13.208Z,99419.16
2023-01-29T02:58:44.523Z,99421.91
2023-01-29T03:01:19.381Z,99422.72
2023-01-29T03:03:53.121Z,99422.84
2023-01-29T03:06:28.669Z,99423.56
2023-01-29T03:09:05.395Z,99422.84
2023-01-29T03:11:40.514Z,99426.94
2023-01-29T03:14:14.868Z,99416.25
2023-01-29T03:16:52.111Z,99416.41
2023-01-29T03:19:19.325Z,99413.53
2023-01-29T03:22:04.814Z,99410.47
2023-01-29T03:24:56.874Z,99415.16
2023-01-29T03:27:45.487Z,99415.25
2023-01-29T03:30:31.941Z,99415.66
2023-01-29T03:33:04.340Z,99409.72
2023-01-29T03:35:38.067Z,99411.38
2023-01-29T03:38:12.223Z,99403.72
2023-01-29T03:40:46.438Z,99410.72
2023-01-29T03:43:32.995Z,99401.09
2023-01-29T03:46:09.008Z,99403.13
2023-01-29T03:48:41.671Z,99403.28
2023-01-29T03:51:10.676Z,99404.94
2023-01-29T03:53:39.701Z,99402.19
2023-01-29T03:56:30.890Z,99398.88
2023-01-29T03:59:22.236Z,99400.38
2023-01-29T04:01:55.698Z,99405.56
2023-01-29T04:04:28.595Z,99409.38
2023-01-29T04:07:02.921Z,99409.06
2023-01-29T04:09:37.286Z,99402.31
2023-01-29T04:12:09.659Z,99400.50
2023-01-29T04:14:38.850Z,99402.03
2023-01-29T04:17:15.541Z,99404.75
2023-01-29T04:19:44.484Z,99393.50
2023-01-29T04:22:25.285Z,99396.94
2023-01-29T04:24:52.610Z,99403.28
2023-01-29T04:27:50.986Z,99402.19
2023-01-29T04:30:54.434Z,99394.53
2023-01-29T04:33:48.327Z,99399.41
2023-01-29T04:36:38.025Z,99392.56
2023-01-29T04:39:24.732Z,99393.94
2023-01-29T04:42:11.737Z,99396.41
2023-01-29T04:44:54.745Z,99399.41
2023-01-29T04:47:42.448Z,99396.53
2023-01-29T04:50:27.900Z,99404.94
2023-01-29T04:53:06.617Z,99390.97
2023-01-29T04:55:46.266Z,99398.06
2023-01-29T04:58:42.884Z,99403.28
2023-01-29T05:01:14.760Z,99409.50
2023-01-29T05:03:46.679Z,99408.34
2023-01-29T05:06:16.497Z,99410.66
2023-01-29T05:08:44.694Z,99408.34
2023-01-29T05:11:12.840Z,99404.63
2023-01-29T05:13:43.070Z,99396.69
2023-01-29T05:16:14.083Z,99400.50
2023-01-29T05:18:41.402Z,99402.25
2023-01-29T05:21:10.774Z,99402.91
2023-01-29T05:23:38.147Z,99399.41
2023-01-29T05:26:06.883Z,99411.50
2023-01-29T05:28:34.732Z,99404.50
2023-01-29T05:31:02.768Z,99392.41
2023-01-29T05:33:32.237Z,99405.44
2023-01-29T05:36:00.619Z,99402.69
2023-01-29T05:38:28.061Z,99401.31
2023-01-29T05:40:55.581Z,99401.72
2023-01-29T05:43:26.183Z,99398.41
2023-01-29T05:45:57.481Z,99401.31
2023-01-29T05:48:29.172Z,99402.97
2023-01-29T05:51:03.879Z,99399.41
2023-01-29T05:53:32.474Z,99401.63
2023-01-29T05:56:04.807Z,99403.97
2023-01-29T05:58:33.989Z,99407.25
2023-01-29T06:01:19.292Z,99401.94
2023-01-29T06:03:47.130Z,99408.50
2023-01-29T06:06:15.426Z,99407.25
2023-01-29T06:08:43.254Z,99409.06
2023-01-29T06:11:13.697Z,99418.63
2023-01-29T06:13:41.690Z,99413.41
2023-01-29T06:16:10.691Z,99406.44
2023-01-29T06:18:39.084Z,99401.41
2023-01-29T06:21:10.119Z,99414.38
2023-01-29T06:23:38.591Z,99403.53
2023-01-29T06:26:09.830Z,99407.66
2023-01-29T06:28:37.445Z,99410.28
2023-01-29T06:33:54.168Z,99402.28
2023-01-29T06:36:22.272Z,99406.25
2023-01-29T06:38:49.706Z,99400.50
2023-01-29T06:41:19.747Z,99403.66
2023-01-29T06:43:48.226Z,99407.63
2023-01-29T06:46:15.441Z,99411.88
2023-01-29T06:48:43.472Z,99418.50
2023-01-29T06:51:11.562Z,99416.00
2023-01-29T06:53:40.648Z,99413.91
2023-01-29T06:56:09.143Z,99416.56
2023-01-29T06:58:38.757Z,99400.06
2023-01-29T07:01:08.331Z,99402.34
2023-01-29T07:03:36.488Z,99406.13
2023-01-29T07:06:04.375Z,99401.34
2023-01-29T07:08:32.133Z,99409.25
2023-01-29T07:11:01.816Z,99409.09
2023-01-29T07:13:30.511Z,99417.44
2023-01-29T07:16:01.290Z,99408.31
2023-01-29T07:18:31.019Z,99416.78
2023-01-29T07:20:58.949Z,99415.16
2023-01-29T07:23:26.530Z,99418.38
2023-01-29T07:25:54.097Z,99404.84
2023-01-29T07:28:22.083Z,99407.34
2023-01-29T07:30:49.097Z,99413.63
2023-01-29T07:33:16.561Z,99411.38
2023-01-29T07:35:44.435Z,99411.25
2023-01-29T07:38:12.756Z,99413.50
2023-01-29T07:40:40.456Z,99404.59
2023-01-29T07:43:10.338Z,99406.13
2023-01-29T07:45:40.122Z,99402.34
2023-01-29T07:48:11.485Z,99388.66
2023-01-29T07:50:39.992Z,99399.59
2023-01-29T07:53:08.554Z,99400.72
2023-01-29T07:55:35.885Z,99402.22
2023-01-29T07:58:04.962Z,99395.81
2023-01-29T08:00:32.949Z,99404.44
2023-01-29T08:03:12.872Z,99403.97
2023-01-29T08:05:40.253Z,99403.53
2023-01-29T08:08:08.082Z,99403.22
2023-01-29T08:10:37.732Z,99415.47
2023-01-29T08:13:06.620Z,99421.94
2023-01-29T08:15:37.178Z,99418.75
2023-01-29T08:18:07.053Z,99416.16
2023-01-29T08:20:35.376Z,99427.41
2023-01-29T08:23:06.605Z,99422.84
2023-01-29T08:25:35.046Z,99420.25
2023-01-29T08:28:03.038Z,99422.72
2023-01-29T08:30:33.052Z,99430.03
2023-01-29T08:33:00.412Z,99434.81
2023-01-29T08:35:28.645Z,99433.44
2023-01-29T08:37:59.769Z,99433.72
2023-01-29T08:40:29.461Z,99435.59
2023-01-29T08:43:02.074Z,99441.88
2023-01-29T08:45:31.640Z,99442.19
2023-01-29T08:47:58.918Z,99450.88
2023-01-29T08:50:27.390Z,99452.91
2023-01-29T08:52:59.500Z,99455.66
2023-01-29T08:55:27.730Z,99452.91
2023-01-29T08:57:58.180Z,99460.41
2023-01-29T09:00:28.861Z,99467.09
2023-01-29T09:02:57.010Z,99465.50
2023-01-29T09:05:24.412Z,99467.41
2023-01-29T09:07:54.175Z,99471.53
2023-01-29T09:10:21.513Z,99472.66
2023-01-29T09:12:48.994Z,99475.72
2023-01-29T09:15:16.824Z,99475.72
2023-01-29T09:17:44.653Z,99482.28
2023-01-29T09:20:12.711Z,99484.03
2023-01-29T09:22:40.658Z,99490.53
2023-01-29T09:25:08.780Z,99483.66
2023-01-29T09:27:37.286Z,99485.75
2023-01-29T09:30:06.382Z,99486.44
2023-01-29T09:35:24.435Z,99481.16
2023-01-29T09:37:53.204Z,99486.50
2023-01-29T09:40:39.416Z,99485.09
2023-01-29T09:43:14.751Z,99491.53
2023-01-29T09:45:54.849Z,99497.03
2023-01-29T09:48:28.676Z,99493.34
2023-01-29T09:51:00.613Z,99494.72
2023-01-29T09:53:47.144Z,99494.31
2023-01-29T09:56:21.685Z,99489.50
2023-01-29T09:58:49.775Z,99490.06
2023-01-29T10:01:30.214Z,99495.06
2023-01-29T10:03:58.605Z,99495.19
2023-01-29T10:06:56.825Z,99499.94
2023-01-29T10:09:53.717Z,99496.69
2023-01-29T10:12:36.223Z,99500.94
2023-01-29T10:15:21.134Z,99499.88
2023-01-29T10:18:09.552Z,99502.22
2023-01-29T10:20:45.353Z,99506.91
2023-01-29T10:23:17.893Z,99502.66
2023-01-29T10:25:47.664Z,99497.56
2023-01-29T10:28:35.949Z,99494.28
2023-01-29T10:31:14.412Z,99488.50
2023-01-29T10:34:01.378Z,99489.31
2023-01-29T10:36:36.406Z,99490.84
2023-01-29T10:39:04.037Z,99487.41
2023-01-29T10:41:59.486Z,99483.88
2023-01-29T10:44:52.036Z,99481.50
2023-01-29T10:47:50.006Z,99469.22
2023-01-29T10:50:42.976Z,99471.59
2023-01-29T10:53:20.448Z,99459.38
2023-01-29T10:56:23.220Z,99455.66
2023-01-29T10:58:58.462Z,99452.41
2023-01-29T11:01:27.419Z,99451.00
2023-01-29T11:03:59.073Z,99450.69
2023-01-29T11:06:30.365Z,99442.34
2023-01-29T11:09:14.057Z,99432.19
2023-01-29T11:11:50.854Z,99429.31
2023-01-29T11:14:31.755Z,99433.16
2023-01-29T11:17:01.137Z,99435.91
2023-01-29T11:19:45.600Z,99432.34
2023-01-29T11:22:15.653Z,99428.47
2023-01-29T11:24:44.272Z,99435.06
2023-01-29T11:27:30.584Z,99422.72
2023-01-29T11:29:59.409Z,99419.97
2023-01-29T11:32:30.835Z,99406.00
2023-01-29T11:35:19.218Z,99406.28
2023-01-29T11:37:47.821Z,99400.38
2023-01-29T11:40:36.842Z,99399.41
2023-01-29T11:43:22.319Z,99384.91
2023-01-29T11:45:54.771Z,99382.28
2023-01-29T11:48:25.627Z,99380.09
2023-01-29T11:50:57.594Z,99383.38
2023-01-29T11:53:43.398Z,99378.31
2023-01-29T11:56:21.031Z,99372.97
2023-01-29T11:58:51.054Z,99367.88
2023-01-29T12:01:30.678Z,99368.56
2023-01-29T12:03:58.708Z,99369.41
2023-01-29T12:06:43.363Z,99363.63
2023-01-29T12:09:17.100Z,99361.44
2023-01-29T12:11:44.795Z,99351.97
2023-01-29T12:14:33.902Z,99347.59
2023-01-29T12:17:09.648Z,99344.00
2023-01-29T12:19:48.894Z,99335.50
2023-01-29T12:22:27.197Z,99335.91
2023-01-29T12:24:56.813Z,99322.47
2023-01-29T12:27:37.208Z,99325.06
2023-01-29T12:30:20.837Z,99322.03
2023-01-29T12:33:00.228Z,99324.66
2023-01-29T12:35:34.247Z,99309.56
2023-01-29T12:38:14.999Z,99311.78
2023-01-29T12:40:47.540Z,99302.28
2023-01-29T12:43:23.235Z,99310.38
2023-01-29T12:45:55.590Z,99313.41
2023-01-29T12:48:31.295Z,99300.38
2023-01-29T12:51:08.770Z,99294.44
2023-01-29T12:53:42.526Z,99288.72
2023-01-29T12:56:30.379Z,99272.88
2023-01-29T12:58:59.888Z,99272.34
2023-01-29T13:01:46.181Z,99269.88
2023-01-29T13:04:28.939Z,99272.75
2023-01-29T13:07:03.934Z,99273.00
2023-01-29T13:09:34.846Z,99279.31
2023-01-29T13:12:08.985Z,99273.44
2023-01-29T13:14:53.233Z,99270.41
2023-01-29T13:17:36.444Z,99269.72
2023-01-29T13:20:29.718Z,99266.84
2023-01-29T13:23:04.238Z,99269.31
2023-01-29T13:25:31.328Z,99264.94
2023-01-29T13:27:58.150Z,99261.81
2023-01-29T13:30:32.566Z,99262.47
2023-01-29T13:33:11.722Z,99276.19
2023-01-29T13:35:46.016Z,99267.97
2023-01-29T13:38:25.748Z,99274.69
2023-01-29T13:41:04.333Z,99279.22
2023-01-29T13:43:39.085Z,99273.31
2023-01-29T13:46:20.606Z,99275.94
2023-01-29T13:48:52.719Z,99277.56
2023-01-29T13:51:23.818Z,99270.72
2023-01-29T13:54:17.694Z,99280.47
2023-01-29T13:56:56.681Z,99272.22
2023-01-29T13:59:46.150Z,99269.63
2023-01-29T14:02:24.268Z,99265.63
2023-01-29T14:04:52.483Z,99261.66
2023-01-29T14:07:50.804Z,99250.13
2023-01-29T14:10:23.167Z,99244.91
2023-01-29T14:12:54.093Z,99252.88
2023-01-29T14:15:22.649Z,99239.59
2023-01-29T14:18:14.316Z,99240.25
2023-01-29T14:20:54.590Z,99240.25
2023-01-29T14:23:31.307Z,99236.25
2023-01-29T14:26:02.583Z,99231.75
2023-01-29T14:28:33.279Z,99227.06
2023-01-29T14:31:01.825Z,99234.91
2023-01-29T14:33:37.426Z,99231.75
2023-01-29T14:36:10.733Z,99218.41
2023-01-29T14:38:42.655Z,99224.72
2023-01-29T14:41:32.028Z,99224.63
2023-01-29T14:44:31.525Z,99216.25
2023-01-29T14:47:00.487Z,99223.22
2023-01-29T14:49:54.013Z,99225.97
2023-01-29T14:52:36.813Z,99218.84
2023-01-29T14:55:10.807Z,99215.56
2023-01-29T14:57:39.784Z,99224.88
2023-01-29T15:00:28.203Z,99226.78
2023-01-29T15:03:02.085Z,99228.97
2023-01-29T15:05:38.537Z,99236.41
2023-01-29T15:08:15.699Z,99224.88
2023-01-29T15:11:13.262Z,99220.16
2023-01-29T15:13:58.699Z,99226.75
2023-01-29T15:16:35.356Z,99226.09
2023-01-29T15:19:24.322Z,99220.75
2023-01-29T15:22:13.296Z,99224.56
2023-01-29T15:24:43.776Z,99216.78
2023-01-29T15:27:18.185Z,99217.47
2023-01-29T15:29:55.436Z,99225.19
2023-01-29T15:32:41.294Z,99222.00
2023-01-29T15:35:36.558Z,99220.34
2023-01-29T15:38:07.577Z,99232.03
2023-01-29T15:40:36.706Z,99224.22
2023-01-29T15:43:23.673Z,99228.16
2023-01-29T15:45:55.821Z,99227.91
2023-01-29T15:48:35.599Z,99235.59
2023-01-29T15:51:09.147Z,99229.97
2023-01-29T15:53:43.600Z,99231.88
2023-01-29T15:56:14.967Z,99236.41
2023-01-29T15:58:47.695Z,99235.16
2023-01-29T16:01:16.728Z,99231.78
2023-01-29T16:03:46.530Z,99237.53
2023-01-29T16:06:14.474Z,99227.78
2023-01-29T16:08:44.849Z,99233.66
2023-01-29T16:11:14.189Z,99240.28
2023-01-29T16:13:44.553Z,99236.13
2023-01-29T16:16:26.109Z,99238.34
2023-01-29T16:19:00.359Z,99240.53
2023-01-29T16:21:33.236Z,99250.28
2023-01-29T16:24:08.059Z,99255.91
2023-01-29T16:26:44.201Z,99254.97
2023-01-29T16:29:19.371Z,99255.91
2023-01-29T16:31:50.158Z,99257.81
2023-01-29T16:34:40.659Z,99252.31
2023-01-29T16:37:23.310Z,99257.81
2023-01-29T16:39:53.700Z,99253.16
2023-01-29T16:42:27.281Z,99252.75
2023-01-29T16:45:02.265Z,99256.88
2023-01-29T16:47:36.822Z,99258.78
2023-01-29T16:50:20.237Z,99262.63
2023-01-29T16:52:57.767Z,99265.13
2023-01-29T16:55:26.915Z,99259.47
2023-01-29T16:57:55.495Z,99269.38
2023-01-29T17:00:28.794Z,99266.50
2023-01-29T17:03:03.904Z,99266.59
2023-01-29T17:05:33.635Z,99268.53
2023-01-29T17:08:02.369Z,99259.22
2023-01-29T17:10:31.159Z,99264.44
2023-01-29T17:13:06.500Z,99254.16
2023-01-29T17:15:43.950Z,99258.53
2023-01-29T17:18:19.470Z,99256.75
2023-01-29T17:20:49.359Z,99251.53
2023-01-29T17:23:18.298Z,99256.75
2023-01-29T17:25:48.288Z,99273.50
2023-01-29T17:28:20.045Z,99271.03
2023-01-29T17:31:00.172Z,99268.28
2023-01-29T17:33:33.083Z,99276.63
2023-01-29T17:36:01.020Z,99270.31
2023-01-29T17:38:27.840Z,99265.25
2023-01-29T17:41:02.373Z,99265.13
2023-01-29T17:43:29.145Z,99267.31
2023-01-29T17:45:55.982Z,99271.41
2023-01-29T17:48:25.672Z,99270.59
2023-01-29T17:50:56.895Z,99256.72
2023-01-29T17:53:30.492Z,99261.13
2023-01-29T17:56:04.717Z,99265.53
2023-01-29T17:58:32.937Z,99265.25
2023-01-29T18:01:01.575Z,99261.69
2023-01-29T18:03:30.743Z,99254.84
2023-01-29T18:05:59.887Z,99261.69
2023-01-29T18:08:34.377Z,99254.84
2023-01-29T18:11:02.804Z,99266.06
2023-01-29T18:13:31.234Z,99246.31
2023-01-29T18:15:59.396Z,99251.97
2023-01-29T18:18:28.265Z,99249.59
2023-01-29T18:20:56.412Z,99243.16
2023-01-29T18:23:26.339Z,99240.69
2023-01-29T18:25:58.143Z,99243.31
2023-01-29T18:28:26.714Z,99243.31
2023-01-29T18:30:54.905Z,99249.34
2023-01-29T18:33:25.057Z,99238.22
2023-01-29T18:35:55.900Z,99238.50
2023-01-29T18:38:24.359Z,99239.47
2023-01-29T18:40:52.120Z,99234.53
2023-01-29T18:43:19.587Z,99241.13
2023-01-29T18:45:49.004Z,99236.16
2023-01-29T18:48:16.930Z,99237.16
2023-01-29T18:50:45.109Z,99239.19
2023-01-29T18:53:13.922Z,99235.63
2023-01-29T18:55:42.875Z,99242.47
2023-01-29T18:58:28.511Z,99239.75
2023-01-29T19:01:00.888Z,99247.00
2023-01-29T19:03:29.821Z,99240.56
2023-01-29T19:06:01.899Z,99242.47
2023-01-29T19:08:30.244Z,99234.81
2023-01-29T19:11:02.425Z,99231.66
2023-01-29T19:13:32.402Z,99243.44
2023-01-29T19:15:59.499Z,99227.38
2023-01-29T19:18:28.556Z,99225.91
2023-01-29T19:20:56.304Z,99223.28
2023-01-29T19:23:23.705Z,99220.69
2023-01-29T19:25:51.501Z,99222.88
2023-01-29T19:28:19.109Z,99214.78
2023-01-29T19:30:46.124Z,99216.97
2023-01-29T19:54:46.299Z,99202.16
2023-01-29T19:57:13.533Z,99199.28
2023-01-29T19:59:40.599Z,99196.66
2023-01-29T20:02:08.643Z,99200.66
2023-01-29T20:04:35.552Z,99209.00
2023-01-29T20:07:02.481Z,99212.47
2023-01-29T20:09:31.238Z,99210.94
2023-01-29T20:11:59.155Z,99210.09
2023-01-29T20:14:27.196Z,99200.38
2023-01-29T20:16:55.149Z,99208.50
2023-01-29T20:19:23.660Z,99209.97
2023-01-29T20:21:51.737Z,99198.34
2023-01-29T20:24:19.575Z,99203.94
2023-01-29T20:26:47.729Z,99200.81
2023-01-29T20:29:15.861Z,99203.25
2023-01-29T20:31:43.121Z,99203.94
2023-01-29T20:34:10.858Z,99194.06
2023-01-29T20:36:38.493Z,99198.59
2023-01-29T20:39:06.611Z,99198.19
2023-01-29T20:41:33.736Z,99197.50
2023-01-29T20:44:01.418Z,99185.44
2023-01-29T20:46:29.351Z,99190.38
2023-01-29T20:48:57.024Z,99186.66
2023-01-29T20:51:25.469Z,99176.91
2023-01-29T20:53:55.609Z,99181.03
2023-01-29T20:56:33.421Z,99178.28
2023-01-29T20:59:05.403Z,99175.00
2023-01-29T21:01:35.126Z,99174.19
2023-01-29T21:04:02.805Z,99172.81
2023-01-29T21:06:31.298Z,99167.75
2023-01-29T21:08:59.977Z,99165.13
2023-01-29T21:11:29.647Z,99168.56
2023-01-29T21:13:58.469Z,99170.72
2023-01-29T21:16:26.955Z,99167.31
2023-01-29T21:18:57.600Z,99164.84
2023-01-29T21:21:27.285Z,99158.41
2023-01-29T21:23:56.095Z,99158.28
2023-01-29T21:26:24.033Z,99160.88
2023-01-29T21:28:52.967Z,99155.53
2023-01-29T21:31:20.866Z,99159.66
2023-01-29T21:33:49.654Z,99153.34
2023-01-29T21:36:18.476Z,99153.63
2023-01-29T21:38:46.961Z,99141.13
2023-01-29T21:41:16.413Z,99148.69
2023-01-29T21:43:46.112Z,99147.00
2023-01-29T21:46:15.901Z,99143.75
2023-01-29T21:48:44.822Z,99140.28
2023-01-29T21:51:11.833Z,99147.72
2023-01-29T21:53:39.988Z,99149.50
2023-01-29T21:56:07.724Z,99146.22
2023-01-29T21:58:35.266Z,99153.06
2023-01-29T22:01:36.559Z,99146.78
2023-01-29T22:03:52.633Z,99146.34
2023-01-29T22:06:21.122Z,99148.53
2023-01-29T22:08:49.939Z,99135.22
2023-01-29T22:11:18.654Z,99139.63
2023-01-29T22:13:47.359Z,99137.56
2023-01-29T22:16:15.183Z,99127.44
2023-01-29T22:18:42.341Z,99121.78
2023-01-29T22:21:09.109Z,99123.16
2023-01-29T22:23:36.748Z,99112.72
2023-01-29T22:26:07.419Z,99110.28
2023-01-29T22:28:35.384Z,99112.31
2023-01-29T22:31:04.437Z,99107.81
2023-01-29T22:33:33.961Z,99098.84
2023-01-29T22:36:02.584Z,99101.75
2023-01-29T22:38:31.748Z,99091.03
2023-01-29T22:41:02.557Z,99090.53
2023-01-29T22:43:30.291Z,99091.72
2023-01-29T22:45:58.753Z,99085.16
2023-01-29T22:48:26.967Z,99088.59
2023-01-29T22:51:09.576Z,99077.63
2023-01-29T22:53:41.374Z,99064.22
2023-01-29T22:56:10.349Z,99068.84
2023-01-29T22:58:38.987Z,99071.47
2023-01-29T23:01:07.368Z,99072.19
2023-01-29T23:03:35.319Z,99077.38
2023-01-29T23:06:04.557Z,99078.50
2023-01-29T23:08:34.690Z,99075.03
2023-01-29T23:11:21.335Z,99079.59
2023-01-29T23:13:53.143Z,99086.97
2023-01-29T23:16:26.176Z,99079.16
2023-01-29T23:18:55.336Z,99077.25
2023-01-29T23:21:26.128Z,99071.47
2023-01-29T23:23:55.446Z,99066.13
2023-01-29T23:26:38.256Z,99062.72
2023-01-29T23:29:07.257Z,99062.16
2023-01-29T23:31:34.488Z,99057.75
2023-01-29T23:34:01.860Z,99061.47
2023-01-29T23:36:29.803Z,99044.88
2023-01-29T23:38:57.121Z,99046.38
2023-01-29T23:41:25.094Z,99044.22
2023-01-29T23:43:53.600Z,99048.19
2023-01-29T23:46:22.088Z,99044.97
2023-01-29T23:48:50.274Z,99038.16
2023-01-29T23:51:20.690Z,99033.91
2023-01-29T23:53:49.311Z,99032.78
2023-01-29T23:56:21.379Z,99022.38
2023-01-29T23:58:54.398Z,99020.31
